Atlanta, Texas
Current Conditions -  °F | °C
As of 10:53 PM on Saturday 25 Oct 2014 (Local Time) from KTXK Reporting Station
Clear Clear  
Wind Chill: 68°   Ceiling: Unl
Heat Index: 68°   Visibility: 8mi
Dew Point: 64°   Wind: 5mph
Humidity: 87%   Direction: 210°SSW
Pressure: 30.06"   Gusts: NA
Location:  33.12°N, 94.17°W
Report Text: KTXK 260353Z AUTO 21004KT 8SM CLR 20/18 A3006 RMK AO2 SLP174 T02000178
Loading
Personal Weather Stations






























Interactive Weather Map
Tropical Storm Tracking
New forecast layout! Learn more

10-Day Weather Forecast

Advertisements
Track Severe Weather on mobile